sensor_id;sensor_type;location;lat;lon;timestamp;P1;durP1;ratioP1;P2;durP2;ratioP2
37859;SDS011;23698;52.014;5.190;2024-02-21T00:00:53;12.75;;;4.80;;
37859;SDS011;23698;52.014;5.190;2024-02-21T00:03:40;16.70;;;4.68;;
37859;SDS011;23698;52.014;5.190;2024-02-21T00:06:26;11.52;;;4.18;;
37859;SDS011;23698;52.014;5.190;2024-02-21T00:09:13;15.45;;;4.57;;
37859;SDS011;23698;52.014;5.190;2024-02-21T00:11:59;13.25;;;4.22;;
37859;SDS011;23698;52.014;5.190;2024-02-21T00:14:48;15.82;;;4.82;;
37859;SDS011;23698;52.014;5.190;2024-02-21T00:17:35;14.43;;;4.68;;
37859;SDS011;23698;52.014;5.190;2024-02-21T00:20:21;16.17;;;4.55;;
37859;SDS011;23698;52.014;5.190;2024-02-21T00:23:08;17.42;;;5.03;;
37859;SDS011;23698;52.014;5.190;2024-02-21T00:25:54;19.30;;;5.80;;
37859;SDS011;23698;52.014;5.190;2024-02-21T00:28:41;16.38;;;4.60;;
37859;SDS011;23698;52.014;5.190;2024-02-21T00:31:30;10.63;;;4.30;;
37859;SDS011;23698;52.014;5.190;2024-02-21T00:34:17;14.95;;;4.55;;
37859;SDS011;23698;52.014;5.190;2024-02-21T00:37:04;12.02;;;4.57;;
37859;SDS011;23698;52.014;5.190;2024-02-21T00:39:50;12.38;;;4.65;;
37859;SDS011;23698;52.014;5.190;2024-02-21T00:42:37;16.35;;;4.82;;
37859;SDS011;23698;52.014;5.190;2024-02-21T00:45:24;13.35;;;4.95;;
37859;SDS011;23698;52.014;5.190;2024-02-21T00:48:12;18.35;;;5.30;;
37859;SDS011;23698;52.014;5.190;2024-02-21T00:50:59;19.80;;;5.55;;
37859;SDS011;23698;52.014;5.190;2024-02-21T00:53:45;12.57;;;4.43;;
37859;SDS011;23698;52.014;5.190;2024-02-21T00:56:32;19.45;;;4.35;;
37859;SDS011;23698;52.014;5.190;2024-02-21T00:59:19;17.55;;;5.65;;
37859;SDS011;23698;52.014;5.190;2024-02-21T01:02:06;15.35;;;4.30;;
37859;SDS011;23698;52.014;5.190;2024-02-21T01:04:54;16.40;;;5.05;;
37859;SDS011;23698;52.014;5.190;2024-02-21T01:07:41;8.77;;;4.15;;
37859;SDS011;23698;52.014;5.190;2024-02-21T01:10:28;12.52;;;5.57;;
37859;SDS011;23698;52.014;5.190;2024-02-21T01:13:15;15.75;;;4.13;;
37859;SDS011;23698;52.014;5.190;2024-02-21T01:16:02;14.82;;;4.60;;
37859;SDS011;23698;52.014;5.190;2024-02-21T01:18:49;12.10;;;4.97;;
37859;SDS011;23698;52.014;5.190;2024-02-21T01:21:37;15.90;;;4.47;;
37859;SDS011;23698;52.014;5.190;2024-02-21T01:24:23;21.58;;;5.38;;
37859;SDS011;23698;52.014;5.190;2024-02-21T01:27:09;18.42;;;5.25;;
37859;SDS011;23698;52.014;5.190;2024-02-21T01:29:56;16.10;;;4.38;;
37859;SDS011;23698;52.014;5.190;2024-02-21T01:32:42;18.88;;;4.88;;
37859;SDS011;23698;52.014;5.190;2024-02-21T01:35:29;14.23;;;4.20;;
37859;SDS011;23698;52.014;5.190;2024-02-21T01:38:17;18.65;;;5.20;;
37859;SDS011;23698;52.014;5.190;2024-02-21T01:41:04;18.83;;;5.38;;
37859;SDS011;23698;52.014;5.190;2024-02-21T01:43:52;14.98;;;4.90;;
37859;SDS011;23698;52.014;5.190;2024-02-21T01:46:38;17.08;;;4.60;;
37859;SDS011;23698;52.014;5.190;2024-02-21T01:49:25;15.77;;;4.57;;
37859;SDS011;23698;52.014;5.190;2024-02-21T01:52:14;15.38;;;5.53;;
37859;SDS011;23698;52.014;5.190;2024-02-21T01:55:05;16.13;;;4.85;;
37859;SDS011;23698;52.014;5.190;2024-02-21T01:57:53;16.23;;;4.72;;
37859;SDS011;23698;52.014;5.190;2024-02-21T02:00:40;19.55;;;5.43;;
37859;SDS011;23698;52.014;5.190;2024-02-21T02:03:28;17.02;;;5.50;;
37859;SDS011;23698;52.014;5.190;2024-02-21T02:06:16;21.20;;;5.30;;
37859;SDS011;23698;52.014;5.190;2024-02-21T02:09:03;14.43;;;4.28;;
37859;SDS011;23698;52.014;5.190;2024-02-21T02:11:51;15.43;;;4.70;;
37859;SDS011;23698;52.014;5.190;2024-02-21T02:14:38;20.77;;;4.53;;
37859;SDS011;23698;52.014;5.190;2024-02-21T02:17:25;14.32;;;4.60;;
37859;SDS011;23698;52.014;5.190;2024-02-21T02:20:12;15.00;;;4.90;;
37859;SDS011;23698;52.014;5.190;2024-02-21T02:22:59;16.33;;;4.28;;
37859;SDS011;23698;52.014;5.190;2024-02-21T02:25:48;13.23;;;4.72;;
37859;SDS011;23698;52.014;5.190;2024-02-21T02:31:24;14.55;;;4.80;;
37859;SDS011;23698;52.014;5.190;2024-02-21T02:34:11;18.25;;;5.15;;
37859;SDS011;23698;52.014;5.190;2024-02-21T02:36:57;13.27;;;4.80;;
37859;SDS011;23698;52.014;5.190;2024-02-21T02:39:44;13.40;;;4.30;;
37859;SDS011;23698;52.014;5.190;2024-02-21T02:42:32;14.80;;;5.05;;
37859;SDS011;23698;52.014;5.190;2024-02-21T02:45:19;14.95;;;4.93;;
37859;SDS011;23698;52.014;5.190;2024-02-21T02:48:06;14.75;;;5.30;;
37859;SDS011;23698;52.014;5.190;2024-02-21T02:50:53;19.80;;;5.22;;
37859;SDS011;23698;52.014;5.190;2024-02-21T02:53:40;17.17;;;5.38;;
37859;SDS011;23698;52.014;5.190;2024-02-21T02:56:26;12.32;;;5.55;;
37859;SDS011;23698;52.014;5.190;2024-02-21T02:59:14;14.48;;;5.45;;
37859;SDS011;23698;52.014;5.190;2024-02-21T03:02:01;16.05;;;5.07;;
37859;SDS011;23698;52.014;5.190;2024-02-21T03:04:48;12.70;;;5.10;;
37859;SDS011;23698;52.014;5.190;2024-02-21T03:07:34;15.23;;;5.47;;
37859;SDS011;23698;52.014;5.190;2024-02-21T03:10:21;17.40;;;5.70;;
37859;SDS011;23698;52.014;5.190;2024-02-21T03:13:08;11.63;;;5.70;;
37859;SDS011;23698;52.014;5.190;2024-02-21T03:15:56;18.55;;;5.50;;
37859;SDS011;23698;52.014;5.190;2024-02-21T03:18:42;13.27;;;5.18;;
37859;SDS011;23698;52.014;5.190;2024-02-21T03:21:29;18.75;;;5.05;;
37859;SDS011;23698;52.014;5.190;2024-02-21T03:24:15;14.18;;;5.05;;
37859;SDS011;23698;52.014;5.190;2024-02-21T03:27:02;14.50;;;5.40;;
37859;SDS011;23698;52.014;5.190;2024-02-21T03:29:49;15.20;;;5.50;;
37859;SDS011;23698;52.014;5.190;2024-02-21T03:32:37;15.27;;;5.90;;
37859;SDS011;23698;52.014;5.190;2024-02-21T03:35:25;12.88;;;5.20;;
37859;SDS011;23698;52.014;5.190;2024-02-21T03:38:12;13.80;;;4.88;;
37859;SDS011;23698;52.014;5.190;2024-02-21T03:40:59;16.02;;;5.07;;
37859;SDS011;23698;52.014;5.190;2024-02-21T03:43:45;13.45;;;5.07;;
37859;SDS011;23698;52.014;5.190;2024-02-21T03:46:33;13.43;;;5.47;;
37859;SDS011;23698;52.014;5.190;2024-02-21T03:49:21;15.75;;;5.80;;
37859;SDS011;23698;52.014;5.190;2024-02-21T03:52:08;10.57;;;4.88;;
37859;SDS011;23698;52.014;5.190;2024-02-21T03:54:55;14.18;;;5.43;;
37859;SDS011;23698;52.014;5.190;2024-02-21T03:57:42;15.57;;;6.03;;
37859;SDS011;23698;52.014;5.190;2024-02-21T04:00:28;15.02;;;5.72;;
37859;SDS011;23698;52.014;5.190;2024-02-21T04:03:15;18.83;;;5.80;;
37859;SDS011;23698;52.014;5.190;2024-02-21T04:06:03;15.73;;;5.80;;
37859;SDS011;23698;52.014;5.190;2024-02-21T04:08:50;11.63;;;5.20;;
37859;SDS011;23698;52.014;5.190;2024-02-21T04:11:36;11.93;;;5.65;;
37859;SDS011;23698;52.014;5.190;2024-02-21T04:14:23;9.63;;;5.30;;
37859;SDS011;23698;52.014;5.190;2024-02-21T04:17:10;13.10;;;5.82;;
37859;SDS011;23698;52.014;5.190;2024-02-21T04:20:01;13.80;;;5.60;;
37859;SDS011;23698;52.014;5.190;2024-02-21T04:22:52;12.82;;;5.43;;
37859;SDS011;23698;52.014;5.190;2024-02-21T04:25:39;14.40;;;6.13;;
37859;SDS011;23698;52.014;5.190;2024-02-21T04:28:25;15.45;;;6.40;;
37859;SDS011;23698;52.014;5.190;2024-02-21T04:31:13;10.63;;;5.70;;
37859;SDS011;23698;52.014;5.190;2024-02-21T04:34:00;14.02;;;6.50;;
37859;SDS011;23698;52.014;5.190;2024-02-21T04:36:47;12.77;;;6.13;;
37859;SDS011;23698;52.014;5.190;2024-02-21T04:39:35;13.93;;;6.32;;
37859;SDS011;23698;52.014;5.190;2024-02-21T04:42:22;14.38;;;6.30;;
37859;SDS011;23698;52.014;5.190;2024-02-21T04:45:09;12.63;;;6.18;;
37859;SDS011;23698;52.014;5.190;2024-02-21T04:47:56;13.25;;;5.93;;
37859;SDS011;23698;52.014;5.190;2024-02-21T04:50:43;10.38;;;6.13;;
37859;SDS011;23698;52.014;5.190;2024-02-21T04:53:30;13.68;;;6.68;;
37859;SDS011;23698;52.014;5.190;2024-02-21T04:56:18;18.25;;;6.55;;
37859;SDS011;23698;52.014;5.190;2024-02-21T04:59:05;16.65;;;6.38;;
37859;SDS011;23698;52.014;5.190;2024-02-21T05:01:52;12.75;;;7.05;;
37859;SDS011;23698;52.014;5.190;2024-02-21T05:04:38;15.60;;;6.40;;
37859;SDS011;23698;52.014;5.190;2024-02-21T05:07:27;8.63;;;5.07;;
37859;SDS011;23698;52.014;5.190;2024-02-21T05:10:14;12.55;;;6.20;;
37859;SDS011;23698;52.014;5.190;2024-02-21T05:13:04;13.75;;;5.50;;
37859;SDS011;23698;52.014;5.190;2024-02-21T05:15:51;12.05;;;5.95;;
37859;SDS011;23698;52.014;5.190;2024-02-21T05:18:38;10.52;;;5.78;;
37859;SDS011;23698;52.014;5.190;2024-02-21T05:21:28;12.52;;;6.35;;
37859;SDS011;23698;52.014;5.190;2024-02-21T05:24:14;12.38;;;6.57;;
37859;SDS011;23698;52.014;5.190;2024-02-21T05:27:01;12.10;;;6.47;;
37859;SDS011;23698;52.014;5.190;2024-02-21T05:29:49;15.82;;;7.78;;
37859;SDS011;23698;52.014;5.190;2024-02-21T05:32:36;16.95;;;8.23;;
37859;SDS011;23698;52.014;5.190;2024-02-21T05:35:24;17.00;;;7.60;;
37859;SDS011;23698;52.014;5.190;2024-02-21T05:38:13;18.95;;;7.88;;
37859;SDS011;23698;52.014;5.190;2024-02-21T05:40:59;19.73;;;8.10;;
37859;SDS011;23698;52.014;5.190;2024-02-21T05:43:46;15.52;;;7.80;;
37859;SDS011;23698;52.014;5.190;2024-02-21T05:46:34;16.95;;;8.35;;
37859;SDS011;23698;52.014;5.190;2024-02-21T05:49:21;17.23;;;8.05;;
37859;SDS011;23698;52.014;5.190;2024-02-21T05:52:08;16.02;;;8.25;;
37859;SDS011;23698;52.014;5.190;2024-02-21T05:54:55;16.08;;;8.18;;
37859;SDS011;23698;52.014;5.190;2024-02-21T05:57:41;18.63;;;9.32;;
37859;SDS011;23698;52.014;5.190;2024-02-21T06:00:28;24.23;;;8.98;;
37859;SDS011;23698;52.014;5.190;2024-02-21T06:03:16;18.80;;;8.77;;
37859;SDS011;23698;52.014;5.190;2024-02-21T06:06:03;20.83;;;8.80;;
37859;SDS011;23698;52.014;5.190;2024-02-21T06:08:51;22.00;;;9.40;;
37859;SDS011;23698;52.014;5.190;2024-02-21T06:11:37;15.98;;;9.93;;
37859;SDS011;23698;52.014;5.190;2024-02-21T06:14:24;21.30;;;10.48;;
37859;SDS011;23698;52.014;5.190;2024-02-21T06:17:11;19.35;;;9.95;;
37859;SDS011;23698;52.014;5.190;2024-02-21T06:19:59;23.80;;;10.20;;
37859;SDS011;23698;52.014;5.190;2024-02-21T06:22:45;25.65;;;11.35;;
37859;SDS011;23698;52.014;5.190;2024-02-21T06:25:32;27.65;;;10.85;;
37859;SDS011;23698;52.014;5.190;2024-02-21T06:28:19;21.80;;;12.38;;
37859;SDS011;23698;52.014;5.190;2024-02-21T06:31:05;27.92;;;12.27;;
37859;SDS011;23698;52.014;5.190;2024-02-21T06:33:52;30.55;;;13.13;;
37859;SDS011;23698;52.014;5.190;2024-02-21T06:36:40;29.60;;;13.45;;
37859;SDS011;23698;52.014;5.190;2024-02-21T06:39:26;25.17;;;11.88;;
37859;SDS011;23698;52.014;5.190;2024-02-21T06:42:14;28.35;;;12.00;;
37859;SDS011;23698;52.014;5.190;2024-02-21T06:45:01;29.67;;;12.43;;
37859;SDS011;23698;52.014;5.190;2024-02-21T06:47:47;30.52;;;12.60;;
37859;SDS011;23698;52.014;5.190;2024-02-21T06:50:34;30.02;;;13.68;;
37859;SDS011;23698;52.014;5.190;2024-02-21T06:53:22;31.05;;;12.05;;
37859;SDS011;23698;52.014;5.190;2024-02-21T06:56:09;29.77;;;12.07;;
37859;SDS011;23698;52.014;5.190;2024-02-21T06:58:56;26.23;;;11.25;;
37859;SDS011;23698;52.014;5.190;2024-02-21T07:01:44;26.83;;;11.30;;
37859;SDS011;23698;52.014;5.190;2024-02-21T07:04:32;30.65;;;11.30;;
37859;SDS011;23698;52.014;5.190;2024-02-21T07:07:19;27.40;;;11.95;;
37859;SDS011;23698;52.014;5.190;2024-02-21T07:10:08;22.55;;;10.52;;
37859;SDS011;23698;52.014;5.190;2024-02-21T07:12:56;22.03;;;10.90;;
37859;SDS011;23698;52.014;5.190;2024-02-21T07:15:42;26.58;;;11.68;;
37859;SDS011;23698;52.014;5.190;2024-02-21T07:18:29;24.55;;;11.38;;
37859;SDS011;23698;52.014;5.190;2024-02-21T07:21:16;26.73;;;10.93;;
37859;SDS011;23698;52.014;5.190;2024-02-21T07:24:02;22.15;;;10.45;;
37859;SDS011;23698;52.014;5.190;2024-02-21T07:26:51;29.20;;;11.60;;
37859;SDS011;23698;52.014;5.190;2024-02-21T07:29:38;22.75;;;11.38;;
37859;SDS011;23698;52.014;5.190;2024-02-21T07:32:24;28.75;;;12.35;;
37859;SDS011;23698;52.014;5.190;2024-02-21T07:35:11;23.50;;;11.52;;
37859;SDS011;23698;52.014;5.190;2024-02-21T07:37:58;25.20;;;11.63;;
37859;SDS011;23698;52.014;5.190;2024-02-21T07:40:45;22.30;;;11.43;;
37859;SDS011;23698;52.014;5.190;2024-02-21T07:43:34;25.42;;;10.50;;
37859;SDS011;23698;52.014;5.190;2024-02-21T07:46:20;22.88;;;10.52;;
37859;SDS011;23698;52.014;5.190;2024-02-21T07:49:07;22.75;;;10.95;;
37859;SDS011;23698;52.014;5.190;2024-02-21T07:51:53;24.63;;;11.55;;
37859;SDS011;23698;52.014;5.190;2024-02-21T07:54:40;26.20;;;10.65;;
37859;SDS011;23698;52.014;5.190;2024-02-21T07:57:27;23.75;;;10.95;;
37859;SDS011;23698;52.014;5.190;2024-02-21T08:00:16;25.13;;;11.00;;
37859;SDS011;23698;52.014;5.190;2024-02-21T08:03:05;21.67;;;9.82;;
37859;SDS011;23698;52.014;5.190;2024-02-21T08:05:52;20.05;;;10.40;;
37859;SDS011;23698;52.014;5.190;2024-02-21T08:08:38;20.75;;;11.00;;
37859;SDS011;23698;52.014;5.190;2024-02-21T08:11:25;20.17;;;10.60;;
37859;SDS011;23698;52.014;5.190;2024-02-21T08:14:12;23.83;;;11.50;;
37859;SDS011;23698;52.014;5.190;2024-02-21T08:17:06;29.02;;;12.20;;
37859;SDS011;23698;52.014;5.190;2024-02-21T08:19:53;26.52;;;11.55;;
37859;SDS011;23698;52.014;5.190;2024-02-21T08:22:39;25.38;;;11.57;;
37859;SDS011;23698;52.014;5.190;2024-02-21T08:25:26;28.98;;;11.35;;
37859;SDS011;23698;52.014;5.190;2024-02-21T08:28:13;25.65;;;11.80;;
37859;SDS011;23698;52.014;5.190;2024-02-21T08:31:00;23.52;;;11.27;;
37859;SDS011;23698;52.014;5.190;2024-02-21T08:33:48;22.75;;;11.38;;
37859;SDS011;23698;52.014;5.190;2024-02-21T08:36:35;28.58;;;10.77;;
37859;SDS011;23698;52.014;5.190;2024-02-21T08:39:22;24.50;;;10.73;;
37859;SDS011;23698;52.014;5.190;2024-02-21T08:42:09;22.38;;;11.10;;
37859;SDS011;23698;52.014;5.190;2024-02-21T08:44:56;32.78;;;10.50;;
37859;SDS011;23698;52.014;5.190;2024-02-21T08:47:42;19.42;;;10.30;;
37859;SDS011;23698;52.014;5.190;2024-02-21T08:50:31;23.60;;;9.55;;
37859;SDS011;23698;52.014;5.190;2024-02-21T08:53:18;22.30;;;9.95;;
37859;SDS011;23698;52.014;5.190;2024-02-21T08:56:05;21.73;;;10.35;;
37859;SDS011;23698;52.014;5.190;2024-02-21T08:58:53;24.02;;;10.25;;
37859;SDS011;23698;52.014;5.190;2024-02-21T09:01:41;22.40;;;8.52;;
37859;SDS011;23698;52.014;5.190;2024-02-21T09:04:28;18.35;;;8.38;;
37859;SDS011;23698;52.014;5.190;2024-02-21T09:07:18;17.90;;;8.48;;
37859;SDS011;23698;52.014;5.190;2024-02-21T09:10:05;19.52;;;9.95;;
37859;SDS011;23698;52.014;5.190;2024-02-21T09:12:52;23.75;;;8.40;;
37859;SDS011;23698;52.014;5.190;2024-02-21T09:15:39;19.77;;;8.85;;
37859;SDS011;23698;52.014;5.190;2024-02-21T09:18:26;24.48;;;9.40;;
37859;SDS011;23698;52.014;5.190;2024-02-21T09:21:12;21.40;;;8.85;;
37859;SDS011;23698;52.014;5.190;2024-02-21T09:24:00;22.08;;;8.68;;
37859;SDS011;23698;52.014;5.190;2024-02-21T09:26:47;16.77;;;8.38;;
37859;SDS011;23698;52.014;5.190;2024-02-21T09:29:34;17.90;;;8.18;;
37859;SDS011;23698;52.014;5.190;2024-02-21T09:32:21;14.70;;;7.68;;
37859;SDS011;23698;52.014;5.190;2024-02-21T09:35:08;14.98;;;7.60;;
37859;SDS011;23698;52.014;5.190;2024-02-21T09:37:57;20.55;;;8.32;;
37859;SDS011;23698;52.014;5.190;2024-02-21T09:40:46;14.90;;;6.68;;
37859;SDS011;23698;52.014;5.190;2024-02-21T09:43:33;19.30;;;7.60;;
37859;SDS011;23698;52.014;5.190;2024-02-21T09:46:21;17.88;;;7.75;;
37859;SDS011;23698;52.014;5.190;2024-02-21T09:49:15;14.52;;;7.32;;
37859;SDS011;23698;52.014;5.190;2024-02-21T09:52:11;15.02;;;7.00;;
37859;SDS011;23698;52.014;5.190;2024-02-21T09:54:59;17.60;;;7.53;;
37859;SDS011;23698;52.014;5.190;2024-02-21T09:57:49;15.27;;;6.35;;
37859;SDS011;23698;52.014;5.190;2024-02-21T10:00:37;14.80;;;6.83;;
37859;SDS011;23698;52.014;5.190;2024-02-21T10:03:24;14.45;;;6.45;;
37859;SDS011;23698;52.014;5.190;2024-02-21T10:06:10;14.77;;;5.93;;
37859;SDS011;23698;52.014;5.190;2024-02-21T10:08:57;10.77;;;5.95;;
37859;SDS011;23698;52.014;5.190;2024-02-21T10:11:45;14.93;;;6.22;;
37859;SDS011;23698;52.014;5.190;2024-02-21T10:14:33;8.98;;;5.60;;
37859;SDS011;23698;52.014;5.190;2024-02-21T10:17:19;14.75;;;6.03;;
37859;SDS011;23698;52.014;5.190;2024-02-21T10:20:06;13.68;;;5.80;;
37859;SDS011;23698;52.014;5.190;2024-02-21T10:23:00;10.23;;;5.72;;
37859;SDS011;23698;52.014;5.190;2024-02-21T10:25:48;10.10;;;5.22;;
37859;SDS011;23698;52.014;5.190;2024-02-21T10:28:36;11.38;;;5.57;;
37859;SDS011;23698;52.014;5.190;2024-02-21T10:34:16;9.30;;;5.53;;
37859;SDS011;23698;52.014;5.190;2024-02-21T10:37:03;11.07;;;5.40;;
37859;SDS011;23698;52.014;5.190;2024-02-21T10:39:50;9.43;;;4.88;;
37859;SDS011;23698;52.014;5.190;2024-02-21T10:42:37;8.45;;;4.30;;
37859;SDS011;23698;52.014;5.190;2024-02-21T10:45:27;9.70;;;4.88;;
37859;SDS011;23698;52.014;5.190;2024-02-21T10:48:19;7.97;;;5.22;;
37859;SDS011;23698;52.014;5.190;2024-02-21T10:51:14;9.00;;;5.22;;
37859;SDS011;23698;52.014;5.190;2024-02-21T10:54:07;11.23;;;5.80;;
37859;SDS011;23698;52.014;5.190;2024-02-21T10:56:59;10.52;;;6.10;;
37859;SDS011;23698;52.014;5.190;2024-02-21T10:59:49;9.00;;;6.05;;
37859;SDS011;23698;52.014;5.190;2024-02-21T11:02:37;10.68;;;6.57;;
37859;SDS011;23698;52.014;5.190;2024-02-21T11:05:26;15.05;;;6.45;;
37859;SDS011;23698;52.014;5.190;2024-02-21T11:08:14;13.20;;;7.55;;
37859;SDS011;23698;52.014;5.190;2024-02-21T11:11:02;15.57;;;8.23;;
37859;SDS011;23698;52.014;5.190;2024-02-21T11:13:50;17.75;;;8.48;;
37859;SDS011;23698;52.014;5.190;2024-02-21T11:16:37;13.75;;;8.40;;
37859;SDS011;23698;52.014;5.190;2024-02-21T11:19:26;13.00;;;7.78;;
37859;SDS011;23698;52.014;5.190;2024-02-21T11:22:18;10.75;;;7.03;;
37859;SDS011;23698;52.014;5.190;2024-02-21T11:25:08;13.75;;;7.75;;
37859;SDS011;23698;52.014;5.190;2024-02-21T11:28:00;11.55;;;7.13;;
37859;SDS011;23698;52.014;5.190;2024-02-21T11:30:47;11.05;;;6.95;;
37859;SDS011;23698;52.014;5.190;2024-02-21T11:33:39;12.50;;;6.68;;
37859;SDS011;23698;52.014;5.190;2024-02-21T11:36:26;18.85;;;6.88;;
37859;SDS011;23698;52.014;5.190;2024-02-21T11:39:14;13.68;;;6.65;;
37859;SDS011;23698;52.014;5.190;2024-02-21T11:42:06;12.40;;;6.60;;
37859;SDS011;23698;52.014;5.190;2024-02-21T11:44:53;13.98;;;6.80;;
37859;SDS011;23698;52.014;5.190;2024-02-21T11:47:42;11.38;;;6.63;;
37859;SDS011;23698;52.014;5.190;2024-02-21T11:50:29;12.63;;;6.80;;
37859;SDS011;23698;52.014;5.190;2024-02-21T11:53:16;13.02;;;6.47;;
37859;SDS011;23698;52.014;5.190;2024-02-21T11:56:05;14.40;;;6.72;;
37859;SDS011;23698;52.014;5.190;2024-02-21T11:58:52;15.60;;;6.35;;
37859;SDS011;23698;52.014;5.190;2024-02-21T12:01:38;10.98;;;6.45;;
37859;SDS011;23698;52.014;5.190;2024-02-21T12:04:25;9.93;;;5.75;;
37859;SDS011;23698;52.014;5.190;2024-02-21T12:07:12;9.52;;;5.40;;
37859;SDS011;23698;52.014;5.190;2024-02-21T12:10:00;9.35;;;5.65;;
37859;SDS011;23698;52.014;5.190;2024-02-21T12:12:49;10.73;;;6.22;;
37859;SDS011;23698;52.014;5.190;2024-02-21T12:15:38;8.52;;;5.13;;
37859;SDS011;23698;52.014;5.190;2024-02-21T12:18:25;10.73;;;5.63;;
37859;SDS011;23698;52.014;5.190;2024-02-21T12:21:12;9.95;;;5.32;;
37859;SDS011;23698;52.014;5.190;2024-02-21T12:23:59;10.50;;;5.40;;
37859;SDS011;23698;52.014;5.190;2024-02-21T12:26:46;14.95;;;5.90;;
37859;SDS011;23698;52.014;5.190;2024-02-21T12:29:34;13.18;;;4.97;;
37859;SDS011;23698;52.014;5.190;2024-02-21T12:32:21;9.80;;;5.93;;
37859;SDS011;23698;52.014;5.190;2024-02-21T12:35:08;9.30;;;4.45;;
37859;SDS011;23698;52.014;5.190;2024-02-21T12:37:55;7.45;;;5.25;;
37859;SDS011;23698;52.014;5.190;2024-02-21T12:40:41;7.45;;;4.65;;
37859;SDS011;23698;52.014;5.190;2024-02-21T12:43:28;9.48;;;4.28;;
37859;SDS011;23698;52.014;5.190;2024-02-21T12:46:17;10.63;;;4.65;;
37859;SDS011;23698;52.014;5.190;2024-02-21T12:49:04;10.98;;;4.22;;
37859;SDS011;23698;52.014;5.190;2024-02-21T12:51:52;9.68;;;3.90;;
37859;SDS011;23698;52.014;5.190;2024-02-21T12:54:39;12.00;;;4.13;;
37859;SDS011;23698;52.014;5.190;2024-02-21T12:57:25;11.20;;;4.43;;
37859;SDS011;23698;52.014;5.190;2024-02-21T13:00:12;9.75;;;4.55;;
37859;SDS011;23698;52.014;5.190;2024-02-21T13:03:01;8.25;;;4.60;;
37859;SDS011;23698;52.014;5.190;2024-02-21T13:05:48;7.63;;;3.78;;
37859;SDS011;23698;52.014;5.190;2024-02-21T13:08:35;9.15;;;4.18;;
37859;SDS011;23698;52.014;5.190;2024-02-21T13:11:22;9.63;;;4.15;;
37859;SDS011;23698;52.014;5.190;2024-02-21T13:14:12;9.02;;;3.53;;
37859;SDS011;23698;52.014;5.190;2024-02-21T13:16:58;7.43;;;4.00;;
37859;SDS011;23698;52.014;5.190;2024-02-21T13:19:46;9.55;;;4.68;;
37859;SDS011;23698;52.014;5.190;2024-02-21T13:22:33;7.72;;;4.05;;
37859;SDS011;23698;52.014;5.190;2024-02-21T13:25:20;9.73;;;4.80;;
37859;SDS011;23698;52.014;5.190;2024-02-21T13:28:07;10.85;;;4.70;;
37859;SDS011;23698;52.014;5.190;2024-02-21T13:30:54;14.43;;;4.43;;
37859;SDS011;23698;52.014;5.190;2024-02-21T13:33:42;13.98;;;5.50;;
37859;SDS011;23698;52.014;5.190;2024-02-21T13:36:30;12.00;;;4.00;;
37859;SDS011;23698;52.014;5.190;2024-02-21T13:39:17;12.65;;;4.18;;
37859;SDS011;23698;52.014;5.190;2024-02-21T13:42:05;11.43;;;4.05;;
37859;SDS011;23698;52.014;5.190;2024-02-21T13:44:52;11.88;;;4.15;;
37859;SDS011;23698;52.014;5.190;2024-02-21T13:47:39;11.07;;;3.90;;
37859;SDS011;23698;52.014;5.190;2024-02-21T13:50:29;13.32;;;4.32;;
37859;SDS011;23698;52.014;5.190;2024-02-21T13:53:18;10.40;;;4.60;;
37859;SDS011;23698;52.014;5.190;2024-02-21T13:56:06;10.20;;;4.43;;
37859;SDS011;23698;52.014;5.190;2024-02-21T13:58:54;11.57;;;4.50;;
37859;SDS011;23698;52.014;5.190;2024-02-21T14:01:40;14.38;;;4.38;;
37859;SDS011;23698;52.014;5.190;2024-02-21T14:04:28;13.25;;;4.35;;
37859;SDS011;23698;52.014;5.190;2024-02-21T14:07:15;10.38;;;4.05;;
37859;SDS011;23698;52.014;5.190;2024-02-21T14:10:03;11.90;;;3.83;;
37859;SDS011;23698;52.014;5.190;2024-02-21T14:12:51;10.25;;;4.18;;
37859;SDS011;23698;52.014;5.190;2024-02-21T14:15:37;8.48;;;3.50;;
37859;SDS011;23698;52.014;5.190;2024-02-21T14:18:26;9.27;;;3.95;;
37859;SDS011;23698;52.014;5.190;2024-02-21T14:21:13;9.07;;;4.05;;
37859;SDS011;23698;52.014;5.190;2024-02-21T14:23:59;7.25;;;3.63;;
37859;SDS011;23698;52.014;5.190;2024-02-21T14:26:49;8.70;;;2.72;;
37859;SDS011;23698;52.014;5.190;2024-02-21T14:29:36;5.65;;;3.15;;
37859;SDS011;23698;52.014;5.190;2024-02-21T14:32:22;7.68;;;4.25;;
37859;SDS011;23698;52.014;5.190;2024-02-21T14:35:09;13.43;;;3.13;;
37859;SDS011;23698;52.014;5.190;2024-02-21T14:37:55;7.22;;;3.22;;
37859;SDS011;23698;52.014;5.190;2024-02-21T14:40:43;15.15;;;3.30;;
37859;SDS011;23698;52.014;5.190;2024-02-21T14:43:31;8.75;;;3.35;;
37859;SDS011;23698;52.014;5.190;2024-02-21T14:46:17;7.18;;;3.30;;
37859;SDS011;23698;52.014;5.190;2024-02-21T14:49:04;12.63;;;3.67;;
37859;SDS011;23698;52.014;5.190;2024-02-21T14:51:50;7.50;;;3.70;;
37859;SDS011;23698;52.014;5.190;2024-02-21T14:54:37;16.55;;;4.50;;
37859;SDS011;23698;52.014;5.190;2024-02-21T14:57:26;12.45;;;4.70;;
37859;SDS011;23698;52.014;5.190;2024-02-21T15:00:14;8.52;;;4.25;;
37859;SDS011;23698;52.014;5.190;2024-02-21T15:03:02;11.60;;;4.88;;
37859;SDS011;23698;52.014;5.190;2024-02-21T15:05:49;13.50;;;4.75;;
37859;SDS011;23698;52.014;5.190;2024-02-21T15:08:35;11.50;;;4.32;;
37859;SDS011;23698;52.014;5.190;2024-02-21T15:11:22;7.28;;;4.72;;
37859;SDS011;23698;52.014;5.190;2024-02-21T15:14:08;10.02;;;3.78;;
37859;SDS011;23698;52.014;5.190;2024-02-21T15:16:58;8.48;;;4.35;;
37859;SDS011;23698;52.014;5.190;2024-02-21T15:19:45;13.55;;;4.65;;
37859;SDS011;23698;52.014;5.190;2024-02-21T15:22:33;10.90;;;4.47;;
37859;SDS011;23698;52.014;5.190;2024-02-21T15:25:21;13.20;;;4.38;;
37859;SDS011;23698;52.014;5.190;2024-02-21T15:28:07;11.90;;;4.60;;
37859;SDS011;23698;52.014;5.190;2024-02-21T15:30:54;13.95;;;4.93;;
37859;SDS011;23698;52.014;5.190;2024-02-21T15:33:42;12.73;;;4.70;;
37859;SDS011;23698;52.014;5.190;2024-02-21T15:36:29;8.88;;;4.78;;
37859;SDS011;23698;52.014;5.190;2024-02-21T15:39:15;15.25;;;8.05;;
37859;SDS011;23698;52.014;5.190;2024-02-21T15:42:02;16.48;;;8.45;;
37859;SDS011;23698;52.014;5.190;2024-02-21T15:44:49;13.38;;;5.45;;
37859;SDS011;23698;52.014;5.190;2024-02-21T15:47:35;10.93;;;4.95;;
37859;SDS011;23698;52.014;5.190;2024-02-21T15:50:23;14.75;;;5.57;;
37859;SDS011;23698;52.014;5.190;2024-02-21T15:53:13;13.98;;;5.63;;
37859;SDS011;23698;52.014;5.190;2024-02-21T15:55:59;12.13;;;5.88;;
37859;SDS011;23698;52.014;5.190;2024-02-21T15:58:47;19.80;;;8.43;;
37859;SDS011;23698;52.014;5.190;2024-02-21T16:01:34;23.08;;;11.57;;
37859;SDS011;23698;52.014;5.190;2024-02-21T16:04:21;13.77;;;7.35;;
37859;SDS011;23698;52.014;5.190;2024-02-21T16:07:09;15.57;;;8.90;;
37859;SDS011;23698;52.014;5.190;2024-02-21T16:09:56;13.35;;;5.70;;
37859;SDS011;23698;52.014;5.190;2024-02-21T16:12:42;25.00;;;12.88;;
37859;SDS011;23698;52.014;5.190;2024-02-21T16:15:36;12.13;;;5.88;;
37859;SDS011;23698;52.014;5.190;2024-02-21T16:18:23;12.23;;;5.43;;
37859;SDS011;23698;52.014;5.190;2024-02-21T16:21:09;11.05;;;5.03;;
37859;SDS011;23698;52.014;5.190;2024-02-21T16:24:00;15.23;;;7.47;;
37859;SDS011;23698;52.014;5.190;2024-02-21T16:26:47;10.57;;;5.88;;
37859;SDS011;23698;52.014;5.190;2024-02-21T16:29:33;11.23;;;6.25;;
37859;SDS011;23698;52.014;5.190;2024-02-21T16:32:20;13.68;;;7.00;;
37859;SDS011;23698;52.014;5.190;2024-02-21T16:35:07;14.32;;;6.00;;
37859;SDS011;23698;52.014;5.190;2024-02-21T16:37:55;12.35;;;6.18;;